Terminal Aerodrome Forecast
Issued by NWS Hastings, NE

Home | Current Version | Previous Version | Text Only | Print | Product List | Glossary On
Versions: 1 2 3 4 5 6 7 8 9 10 11 12 13 14 15 16
125
FTUS45 KGID 211146 AAA
TAFEAR
TAF AMD
KEAR 211146Z 2112/2212 20009KT P6SM SCT250
     FM212100 20014KT P6SM BKN150
     FM212300 21012KT P6SM VCTS SCT070CB
     FM220200 VRB06KT P6SM VCTS BKN060CB
     FM220600 VRB04KT P6SM BKN035
     FM221000 VRB06KT P6SM SCT080=

USA.gov is the U.S. government's official web portal to all federal, state and local government web resources and services.